createdAt,value
2018-08-07T00:00:00.058Z,99.90
2018-08-07T00:04:08.432Z,99.90
2018-08-07T00:08:16.704Z,99.90
2018-08-07T00:12:25.035Z,99.90
2018-08-07T00:16:33.421Z,99.90
2018-08-07T00:20:41.784Z,99.90
2018-08-07T00:24:50.117Z,99.90
2018-08-07T00:28:58.490Z,99.90
2018-08-07T00:33:06.829Z,99.90
2018-08-07T00:37:15.175Z,99.90
2018-08-07T00:41:23.522Z,99.90
2018-08-07T00:45:31.787Z,99.90
2018-08-07T00:49:40.183Z,99.90
2018-08-07T00:57:56.561Z,99.90
2018-08-07T01:02:04.896Z,99.90
2018-08-07T01:06:13.186Z,99.90
2018-08-07T01:10:21.503Z,99.90
2018-08-07T01:14:29.807Z,99.90
2018-08-07T01:18:38.103Z,99.90
2018-08-07T01:22:46.547Z,99.90
2018-08-07T01:26:54.921Z,99.90
2018-08-07T01:31:03.183Z,99.90
2018-08-07T01:35:12.384Z,99.90
2018-08-07T01:39:21.545Z,99.90
2018-08-07T01:43:29.842Z,99.90
2018-08-07T01:47:38.339Z,99.90
2018-08-07T01:51:46.669Z,99.90
2018-08-07T01:55:54.984Z,99.90
2018-08-07T02:00:03.855Z,99.90
2018-08-07T02:04:12.172Z,99.90
2018-08-07T02:08:20.614Z,99.90
2018-08-07T02:12:28.933Z,99.90
2018-08-07T02:16:37.246Z,99.90
2018-08-07T02:20:45.549Z,99.90
2018-08-07T02:24:53.887Z,99.90
2018-08-07T02:29:02.218Z,99.90
2018-08-07T02:33:10.520Z,99.90
2018-08-07T02:37:18.840Z,99.90
2018-08-07T02:45:35.197Z,99.90
2018-08-07T02:49:43.470Z,99.90
2018-08-07T02:53:51.760Z,99.90
2018-08-07T02:58:00.056Z,99.90
2018-08-07T03:02:08.511Z,99.90
2018-08-07T03:06:16.805Z,99.90
2018-08-07T03:10:25.265Z,99.90
2018-08-07T03:14:33.552Z,99.90
2018-08-07T03:18:41.889Z,99.90
2018-08-07T03:22:50.221Z,99.90
2018-08-07T03:26:58.509Z,99.90
2018-08-07T03:31:07.227Z,99.90
2018-08-07T03:35:15.611Z,99.90
2018-08-07T03:39:23.941Z,99.90
2018-08-07T03:43:32.247Z,99.90
2018-08-07T03:47:40.638Z,99.90
2018-08-07T03:51:48.939Z,99.90
2018-08-07T03:55:57.231Z,99.90
2018-08-07T04:00:08.750Z,99.90
2018-08-07T04:04:17.144Z,99.90
2018-08-07T04:12:33.516Z,99.90
2018-08-07T04:16:47.982Z,99.90
2018-08-07T04:20:56.400Z,99.90
2018-08-07T04:25:05.134Z,99.90
2018-08-07T04:29:13.391Z,99.90
2018-08-07T04:33:21.763Z,99.90
2018-08-07T04:41:38.242Z,99.90
2018-08-07T04:45:46.682Z,99.90
2018-08-07T04:49:54.979Z,99.90
2018-08-07T04:54:03.244Z,99.90
2018-08-07T04:58:11.536Z,99.90
2018-08-07T05:02:20.066Z,99.90
2018-08-07T05:06:28.410Z,99.90
2018-08-07T05:10:36.804Z,99.90
2018-08-07T05:14:45.250Z,99.90
2018-08-07T05:18:53.618Z,99.90
2018-08-07T05:23:01.929Z,99.90
2018-08-07T05:27:10.301Z,99.90
2018-08-07T05:31:18.613Z,99.90
2018-08-07T05:35:26.979Z,99.90
2018-08-07T05:39:35.304Z,99.90
2018-08-07T05:43:43.593Z,99.90
2018-08-07T05:47:51.923Z,99.90
2018-08-07T05:52:00.221Z,99.90
2018-08-07T05:56:08.561Z,99.90
2018-08-07T06:00:19.035Z,99.90
2018-08-07T06:04:27.319Z,99.90
2018-08-07T06:08:35.687Z,99.90
2018-08-07T06:12:44.008Z,99.90
2018-08-07T06:16:52.377Z,99.90
2018-08-07T06:21:00.876Z,99.90
2018-08-07T06:25:09.671Z,99.90
2018-08-07T06:29:18.008Z,99.90
2018-08-07T06:33:26.347Z,99.90
2018-08-07T06:37:34.674Z,99.90
2018-08-07T06:41:45.472Z,99.90
2018-08-07T06:45:54.404Z,99.90
2018-08-07T06:50:02.841Z,99.90
2018-08-07T06:54:11.187Z,99.90
2018-08-07T06:58:19.542Z,99.90
2018-08-07T07:02:27.968Z,99.90
2018-08-07T07:06:36.317Z,99.90
2018-08-07T07:10:44.601Z,99.90
2018-08-07T07:14:53.064Z,99.90
2018-08-07T07:19:01.328Z,99.90
2018-08-07T07:23:09.693Z,99.90
2018-08-07T07:27:18.017Z,99.90
2018-08-07T07:31:26.280Z,99.90
2018-08-07T07:35:34.641Z,99.90
2018-08-07T07:39:42.941Z,99.90
2018-08-07T07:47:59.303Z,99.90
2018-08-07T07:52:07.686Z,99.90
2018-08-07T07:56:15.935Z,99.90
2018-08-07T08:00:27.070Z,99.90
2018-08-07T08:04:35.568Z,99.90
2018-08-07T08:08:43.963Z,99.90
2018-08-07T08:12:52.393Z,99.90
2018-08-07T08:17:00.708Z,99.90
2018-08-07T08:21:09.001Z,99.90
2018-08-07T08:25:17.383Z,99.90
2018-08-07T08:29:25.868Z,99.90
2018-08-07T08:33:34.002Z,98.80
2018-08-07T08:37:42.936Z,98.40
2018-08-07T08:41:51.240Z,96.90
2018-08-07T08:45:59.508Z,98.70
2018-08-07T08:50:10.240Z,97.50
2018-08-07T08:54:18.545Z,96.10
2018-08-07T08:58:26.874Z,96.00
2018-08-07T09:02:35.126Z,95.90
2018-08-07T09:06:43.462Z,99.10
2018-08-07T09:10:52.724Z,97.10
2018-08-07T09:15:01.052Z,95.20
2018-08-07T09:19:09.443Z,95.40
2018-08-07T09:23:17.807Z,93.10
2018-08-07T09:31:34.538Z,93.80
2018-08-07T09:35:42.832Z,93.30
2018-08-07T09:39:51.455Z,94.20
2018-08-07T09:43:59.779Z,91.20
2018-08-07T09:48:10.083Z,91.90
2018-08-07T09:52:18.396Z,90.50
2018-08-07T10:00:39.924Z,90.10
2018-08-07T10:04:48.596Z,85.00
2018-08-07T10:08:57.253Z,92.00
2018-08-07T10:13:05.633Z,84.30
2018-08-07T10:17:13.906Z,89.30
2018-08-07T10:21:22.496Z,82.40
2018-08-07T10:25:30.814Z,78.10
2018-08-07T10:29:39.171Z,79.10
2018-08-07T10:33:47.495Z,81.20
2018-08-07T10:37:55.832Z,79.40
2018-08-07T10:46:12.231Z,78.50
2018-08-07T10:50:22.749Z,74.80
2018-08-07T10:54:31.053Z,75.30
2018-08-07T10:58:39.391Z,74.10
2018-08-07T11:02:48.925Z,68.90
2018-08-07T11:06:57.232Z,71.40
2018-08-07T11:11:05.564Z,66.20
2018-08-07T11:15:18.305Z,72.00
2018-08-07T11:19:26.597Z,69.40
2018-08-07T11:23:34.890Z,66.90
2018-08-07T11:27:43.195Z,62.90
2018-08-07T11:31:51.562Z,66.40
2018-08-07T11:35:59.868Z,64.40
2018-08-07T11:44:17.837Z,64.70
2018-08-07T11:48:26.260Z,64.40
2018-08-07T11:52:34.513Z,63.00
2018-08-07T11:56:42.863Z,61.60
2018-08-07T12:00:51.162Z,62.40
2018-08-07T12:04:59.462Z,59.60
2018-08-07T12:09:09.147Z,59.90
2018-08-07T12:13:17.489Z,64.40
2018-08-07T12:17:25.822Z,61.00
2018-08-07T12:21:34.156Z,61.40
2018-08-07T12:25:42.443Z,57.90
2018-08-07T12:29:50.746Z,57.80
2018-08-07T12:33:59.074Z,54.90
2018-08-07T12:38:07.347Z,56.50
2018-08-07T12:42:15.650Z,56.20
2018-08-07T12:46:24.004Z,55.40
2018-08-07T12:50:32.320Z,55.90
2018-08-07T12:54:40.638Z,55.80
2018-08-07T12:58:48.938Z,54.80
2018-08-07T13:02:57.331Z,54.90
2018-08-07T13:07:05.666Z,54.10
2018-08-07T13:11:13.999Z,54.40
2018-08-07T13:15:22.694Z,55.90
2018-08-07T13:19:31.045Z,55.00
2018-08-07T13:27:47.454Z,53.90
2018-08-07T13:31:55.796Z,53.00
2018-08-07T13:36:04.093Z,52.20
2018-08-07T13:40:14.534Z,52.30
2018-08-07T13:48:30.878Z,52.60
2018-08-07T13:56:48.071Z,51.60
2018-08-07T14:00:56.421Z,54.00
2018-08-07T14:05:04.832Z,51.50
2018-08-07T14:09:13.288Z,53.30
2018-08-07T14:13:21.583Z,52.00
2018-08-07T14:17:29.892Z,49.50
2018-08-07T14:21:38.224Z,53.00
2018-08-07T14:25:46.606Z,51.90
2018-08-07T14:29:54.902Z,50.20
2018-08-07T14:34:03.213Z,49.50
2018-08-07T14:38:11.544Z,48.30
2018-08-07T14:42:19.921Z,48.00
2018-08-07T14:46:28.192Z,48.90
2018-08-07T14:50:36.472Z,49.50
2018-08-07T14:54:44.796Z,50.40
2018-08-07T14:58:53.183Z,48.50
2018-08-07T15:03:01.547Z,49.60
2018-08-07T15:07:09.861Z,49.50
2018-08-07T15:11:18.189Z,49.90
2018-08-07T15:15:28.348Z,51.10
2018-08-07T15:19:36.665Z,50.40
2018-08-07T15:23:44.968Z,50.30
2018-08-07T15:27:53.338Z,49.40
2018-08-07T15:32:01.712Z,50.90
2018-08-07T15:36:10.032Z,52.20
2018-08-07T15:40:18.862Z,50.40
2018-08-07T15:44:27.192Z,50.10
2018-08-07T15:48:35.495Z,50.60
2018-08-07T15:52:45.024Z,51.10
2018-08-07T15:56:53.434Z,48.40
2018-08-07T16:01:01.699Z,48.00
2018-08-07T16:05:10.057Z,47.70
2018-08-07T16:09:18.412Z,45.70
2018-08-07T16:13:26.692Z,47.50
2018-08-07T16:17:35.073Z,47.50
2018-08-07T16:21:43.408Z,48.80
2018-08-07T16:29:59.803Z,46.20
2018-08-07T16:34:08.174Z,47.70
2018-08-07T16:38:16.533Z,48.10
2018-08-07T16:42:24.928Z,46.10
2018-08-07T16:46:33.468Z,47.00
2018-08-07T16:50:41.773Z,47.70
2018-08-07T16:54:50.076Z,47.10
2018-08-07T16:58:58.431Z,47.10
2018-08-07T17:03:06.922Z,44.40
2018-08-07T17:07:15.253Z,45.00
2018-08-07T17:11:23.947Z,47.80
2018-08-07T17:15:32.253Z,47.90
2018-08-07T17:19:40.589Z,47.10
2018-08-07T17:23:48.946Z,46.70
2018-08-07T17:27:57.277Z,44.00
2018-08-07T17:32:05.595Z,43.20
2018-08-07T17:36:13.875Z,43.60
2018-08-07T17:40:24.160Z,44.60
2018-08-07T17:48:40.544Z,48.40
2018-08-07T17:52:48.958Z,54.50
2018-08-07T17:56:57.244Z,46.40
2018-08-07T18:01:05.590Z,50.10
2018-08-07T18:05:13.928Z,47.60
2018-08-07T18:09:22.341Z,50.40
2018-08-07T18:13:30.648Z,51.10
2018-08-07T18:17:39.076Z,48.60
2018-08-07T18:21:47.450Z,48.70
2018-08-07T18:25:55.810Z,49.10
2018-08-07T18:30:06.807Z,53.30
2018-08-07T18:34:15.135Z,49.10
2018-08-07T18:38:23.459Z,54.60
2018-08-07T18:42:31.766Z,57.90
2018-08-07T18:46:40.081Z,59.10
2018-08-07T18:50:48.374Z,59.90
2018-08-07T18:54:56.681Z,59.50
2018-08-07T18:59:05.080Z,59.00
2018-08-07T19:03:13.434Z,59.00
2018-08-07T19:07:21.778Z,59.50
2018-08-07T19:11:30.055Z,60.20
2018-08-07T19:15:38.377Z,61.60
2018-08-07T19:19:46.701Z,64.70
2018-08-07T19:23:55.109Z,75.60
2018-08-07T19:28:03.402Z,79.60
2018-08-07T19:32:11.796Z,77.30
2018-08-07T19:36:20.163Z,71.70
2018-08-07T19:40:28.455Z,74.70
2018-08-07T19:44:36.770Z,73.70
2018-08-07T19:48:45.100Z,77.80
2018-08-07T19:52:53.435Z,74.60
2018-08-07T19:57:01.851Z,82.80
2018-08-07T20:01:10.194Z,78.80
2018-08-07T20:05:18.503Z,84.10
2018-08-07T20:09:27.076Z,86.60
2018-08-07T20:13:35.383Z,87.30
2018-08-07T20:17:43.785Z,83.40
2018-08-07T20:21:52.794Z,84.50
2018-08-07T20:26:01.106Z,84.30
2018-08-07T20:30:11.828Z,89.20
2018-08-07T20:34:20.133Z,89.40
2018-08-07T20:38:28.475Z,86.70
2018-08-07T20:42:36.765Z,85.80
2018-08-07T20:46:45.113Z,83.80
2018-08-07T20:50:53.470Z,88.00
2018-08-07T20:55:01.737Z,88.70
2018-08-07T20:59:10.039Z,92.00
2018-08-07T21:03:18.351Z,91.50
2018-08-07T21:07:26.617Z,89.60
2018-08-07T21:11:34.987Z,87.70
2018-08-07T21:15:43.310Z,92.30
2018-08-07T21:19:52.067Z,93.50
2018-08-07T21:24:00.322Z,92.60
2018-08-07T21:28:08.660Z,92.80
2018-08-07T21:32:16.943Z,90.60
2018-08-07T21:36:25.304Z,91.50
2018-08-07T21:40:33.595Z,92.70
2018-08-07T21:44:41.884Z,92.20
2018-08-07T21:48:50.171Z,91.00
2018-08-07T21:52:58.527Z,91.00
2018-08-07T21:57:06.868Z,88.00
2018-08-07T22:01:15.170Z,86.60
2018-08-07T22:05:23.501Z,86.30
2018-08-07T22:09:31.846Z,90.00
2018-08-07T22:13:40.187Z,90.70
2018-08-07T22:17:48.587Z,91.40
2018-08-07T22:21:56.882Z,85.10
2018-08-07T22:26:05.223Z,90.00
2018-08-07T22:30:16.680Z,87.90
2018-08-07T22:34:24.963Z,91.00
2018-08-07T22:38:33.275Z,89.30
2018-08-07T22:42:41.566Z,88.20
2018-08-07T22:46:49.884Z,87.70
2018-08-07T22:50:58.183Z,85.40
2018-08-07T22:55:08.481Z,82.10
2018-08-07T22:59:16.762Z,83.40
2018-08-07T23:03:25.113Z,85.60
2018-08-07T23:07:33.390Z,86.80
2018-08-07T23:11:41.687Z,85.30
2018-08-07T23:15:50.398Z,86.10
2018-08-07T23:19:58.675Z,84.10
2018-08-07T23:24:06.987Z,86.20
2018-08-07T23:28:15.283Z,85.40
2018-08-07T23:32:23.639Z,89.60
2018-08-07T23:36:31.925Z,87.90
2018-08-07T23:40:40.207Z,89.90
2018-08-07T23:44:48.514Z,89.90
2018-08-07T23:48:56.819Z,89.90
2018-08-07T23:53:05.087Z,88.50
2018-08-07T23:57:13.413Z,85.50
